sensor_id;sensor_type;location;lat;lon;timestamp;P1;durP1;ratioP1;P2;durP2;ratioP2
5787;SDS011;2920;48.158;12.254;2023-05-06T00:01:52;4.50;;;2.63;;
5787;SDS011;2920;48.158;12.254;2023-05-06T00:04:18;4.35;;;2.47;;
5787;SDS011;2920;48.158;12.254;2023-05-06T00:06:43;3.95;;;2.75;;
5787;SDS011;2920;48.158;12.254;2023-05-06T00:09:08;4.65;;;2.70;;
5787;SDS011;2920;48.158;12.254;2023-05-06T00:11:34;3.78;;;2.22;;
5787;SDS011;2920;48.158;12.254;2023-05-06T00:14:00;5.18;;;2.53;;
5787;SDS011;2920;48.158;12.254;2023-05-06T00:16:25;2.55;;;2.08;;
5787;SDS011;2920;48.158;12.254;2023-05-06T00:18:50;3.03;;;2.28;;
5787;SDS011;2920;48.158;12.254;2023-05-06T00:21:16;3.75;;;2.15;;
5787;SDS011;2920;48.158;12.254;2023-05-06T00:23:41;2.22;;;2.00;;
5787;SDS011;2920;48.158;12.254;2023-05-06T00:26:06;3.47;;;2.38;;
5787;SDS011;2920;48.158;12.254;2023-05-06T00:28:32;2.60;;;1.90;;
5787;SDS011;2920;48.158;12.254;2023-05-06T00:30:57;2.10;;;1.63;;
5787;SDS011;2920;48.158;12.254;2023-05-06T00:33:22;3.72;;;1.77;;
5787;SDS011;2920;48.158;12.254;2023-05-06T00:35:48;2.38;;;1.90;;
5787;SDS011;2920;48.158;12.254;2023-05-06T00:38:13;2.25;;;1.80;;
5787;SDS011;2920;48.158;12.254;2023-05-06T00:40:43;2.70;;;2.00;;
5787;SDS011;2920;48.158;12.254;2023-05-06T00:43:09;2.30;;;1.90;;
5787;SDS011;2920;48.158;12.254;2023-05-06T00:45:34;4.05;;;1.95;;
5787;SDS011;2920;48.158;12.254;2023-05-06T00:48:00;2.45;;;1.60;;
5787;SDS011;2920;48.158;12.254;2023-05-06T00:50:26;3.20;;;1.83;;
5787;SDS011;2920;48.158;12.254;2023-05-06T00:52:53;2.65;;;2.00;;
5787;SDS011;2920;48.158;12.254;2023-05-06T00:55:20;2.85;;;2.13;;
5787;SDS011;2920;48.158;12.254;2023-05-06T00:57:46;3.65;;;1.58;;
5787;SDS011;2920;48.158;12.254;2023-05-06T01:00:13;3.92;;;2.35;;
5787;SDS011;2920;48.158;12.254;2023-05-06T01:02:39;3.30;;;2.08;;
5787;SDS011;2920;48.158;12.254;2023-05-06T01:05:05;3.03;;;2.10;;
5787;SDS011;2920;48.158;12.254;2023-05-06T01:13:22;1.70;;;1.60;;
5787;SDS011;2920;48.158;12.254;2023-05-06T01:15:54;3.65;;;2.42;;
5787;SDS011;2920;48.158;12.254;2023-05-06T01:18:22;2.88;;;1.98;;
5787;SDS011;2920;48.158;12.254;2023-05-06T01:20:50;1.83;;;1.43;;
5787;SDS011;2920;48.158;12.254;2023-05-06T01:23:17;3.22;;;2.22;;
5787;SDS011;2920;48.158;12.254;2023-05-06T01:25:43;2.03;;;1.70;;
5787;SDS011;2920;48.158;12.254;2023-05-06T01:28:09;3.08;;;2.15;;
5787;SDS011;2920;48.158;12.254;2023-05-06T01:40:55;3.95;;;2.13;;
5787;SDS011;2920;48.158;12.254;2023-05-06T01:43:22;2.25;;;1.92;;
5787;SDS011;2920;48.158;12.254;2023-05-06T01:45:51;2.95;;;2.08;;
5787;SDS011;2920;48.158;12.254;2023-05-06T01:48:25;4.00;;;2.47;;
5787;SDS011;2920;48.158;12.254;2023-05-06T01:50:52;2.85;;;2.28;;
5787;SDS011;2920;48.158;12.254;2023-05-06T01:53:17;4.07;;;2.30;;
5787;SDS011;2920;48.158;12.254;2023-05-06T01:55:43;3.15;;;1.83;;
5787;SDS011;2920;48.158;12.254;2023-05-06T01:58:08;3.20;;;1.92;;
5787;SDS011;2920;48.158;12.254;2023-05-06T02:00:33;3.15;;;2.30;;
5787;SDS011;2920;48.158;12.254;2023-05-06T02:02:59;4.10;;;2.72;;
5787;SDS011;2920;48.158;12.254;2023-05-06T02:05:24;4.07;;;2.60;;
5787;SDS011;2920;48.158;12.254;2023-05-06T02:07:50;2.90;;;2.25;;
5787;SDS011;2920;48.158;12.254;2023-05-06T02:10:15;4.32;;;2.55;;
5787;SDS011;2920;48.158;12.254;2023-05-06T02:12:41;4.65;;;2.75;;
5787;SDS011;2920;48.158;12.254;2023-05-06T02:15:06;3.42;;;2.20;;
5787;SDS011;2920;48.158;12.254;2023-05-06T02:17:33;4.22;;;2.95;;
5787;SDS011;2920;48.158;12.254;2023-05-06T02:23:21;3.53;;;2.72;;
5787;SDS011;2920;48.158;12.254;2023-05-06T02:25:46;6.13;;;3.03;;
5787;SDS011;2920;48.158;12.254;2023-05-06T02:28:12;3.10;;;2.30;;
5787;SDS011;2920;48.158;12.254;2023-05-06T02:30:37;3.75;;;2.63;;
5787;SDS011;2920;48.158;12.254;2023-05-06T02:33:02;3.83;;;2.85;;
5787;SDS011;2920;48.158;12.254;2023-05-06T02:35:28;4.97;;;2.60;;
5787;SDS011;2920;48.158;12.254;2023-05-06T02:37:53;5.30;;;3.15;;
5787;SDS011;2920;48.158;12.254;2023-05-06T02:40:18;3.80;;;2.97;;
5787;SDS011;2920;48.158;12.254;2023-05-06T02:42:43;4.85;;;3.30;;
5787;SDS011;2920;48.158;12.254;2023-05-06T02:45:09;5.03;;;2.80;;
5787;SDS011;2920;48.158;12.254;2023-05-06T02:47:34;5.30;;;2.85;;
5787;SDS011;2920;48.158;12.254;2023-05-06T02:50:00;5.07;;;2.63;;
5787;SDS011;2920;48.158;12.254;2023-05-06T02:52:25;4.82;;;3.53;;
5787;SDS011;2920;48.158;12.254;2023-05-06T02:54:51;6.32;;;3.30;;
5787;SDS011;2920;48.158;12.254;2023-05-06T02:57:16;3.90;;;2.67;;
5787;SDS011;2920;48.158;12.254;2023-05-06T02:59:41;3.55;;;2.78;;
5787;SDS011;2920;48.158;12.254;2023-05-06T03:02:07;4.07;;;2.83;;
5787;SDS011;2920;48.158;12.254;2023-05-06T03:04:32;3.17;;;2.03;;
5787;SDS011;2920;48.158;12.254;2023-05-06T03:06:57;5.43;;;2.90;;
5787;SDS011;2920;48.158;12.254;2023-05-06T03:09:23;3.17;;;1.98;;
5787;SDS011;2920;48.158;12.254;2023-05-06T03:11:48;2.85;;;2.10;;
5787;SDS011;2920;48.158;12.254;2023-05-06T03:14:13;3.40;;;2.22;;
5787;SDS011;2920;48.158;12.254;2023-05-06T03:16:39;2.65;;;1.90;;
5787;SDS011;2920;48.158;12.254;2023-05-06T03:19:05;2.40;;;1.80;;
5787;SDS011;2920;48.158;12.254;2023-05-06T03:21:30;2.85;;;2.13;;
5787;SDS011;2920;48.158;12.254;2023-05-06T03:23:56;2.97;;;2.13;;
5787;SDS011;2920;48.158;12.254;2023-05-06T03:26:21;2.88;;;2.38;;
5787;SDS011;2920;48.158;12.254;2023-05-06T03:28:46;1.85;;;1.40;;
5787;SDS011;2920;48.158;12.254;2023-05-06T03:31:12;2.97;;;2.33;;
5787;SDS011;2920;48.158;12.254;2023-05-06T03:33:37;2.47;;;2.10;;
5787;SDS011;2920;48.158;12.254;2023-05-06T03:36:02;2.30;;;1.95;;
5787;SDS011;2920;48.158;12.254;2023-05-06T03:38:28;2.97;;;2.20;;
5787;SDS011;2920;48.158;12.254;2023-05-06T03:40:53;3.78;;;2.38;;
5787;SDS011;2920;48.158;12.254;2023-05-06T03:43:19;2.85;;;2.30;;
5787;SDS011;2920;48.158;12.254;2023-05-06T03:45:44;4.05;;;2.70;;
5787;SDS011;2920;48.158;12.254;2023-05-06T03:48:10;5.43;;;2.72;;
5787;SDS011;2920;48.158;12.254;2023-05-06T03:50:35;3.97;;;3.45;;
5787;SDS011;2920;48.158;12.254;2023-05-06T03:53:00;4.38;;;3.03;;
5787;SDS011;2920;48.158;12.254;2023-05-06T03:55:26;5.72;;;3.97;;
5787;SDS011;2920;48.158;12.254;2023-05-06T03:57:51;4.65;;;2.90;;
5787;SDS011;2920;48.158;12.254;2023-05-06T04:00:16;4.47;;;3.08;;
5787;SDS011;2920;48.158;12.254;2023-05-06T04:02:42;4.07;;;3.30;;
5787;SDS011;2920;48.158;12.254;2023-05-06T04:05:07;4.00;;;2.78;;
5787;SDS011;2920;48.158;12.254;2023-05-06T04:07:33;4.88;;;3.40;;
5787;SDS011;2920;48.158;12.254;2023-05-06T04:09:58;6.53;;;3.42;;
5787;SDS011;2920;48.158;12.254;2023-05-06T04:12:23;4.57;;;3.50;;
5787;SDS011;2920;48.158;12.254;2023-05-06T04:14:48;5.07;;;3.85;;
5787;SDS011;2920;48.158;12.254;2023-05-06T04:17:14;4.43;;;3.30;;
5787;SDS011;2920;48.158;12.254;2023-05-06T04:19:39;6.22;;;3.72;;
5787;SDS011;2920;48.158;12.254;2023-05-06T04:22:04;4.80;;;2.90;;
5787;SDS011;2920;48.158;12.254;2023-05-06T04:24:30;3.85;;;3.13;;
5787;SDS011;2920;48.158;12.254;2023-05-06T04:26:55;4.47;;;3.10;;
5787;SDS011;2920;48.158;12.254;2023-05-06T04:29:21;4.28;;;2.78;;
5787;SDS011;2920;48.158;12.254;2023-05-06T04:31:46;6.72;;;3.28;;
5787;SDS011;2920;48.158;12.254;2023-05-06T04:34:11;4.72;;;2.78;;
5787;SDS011;2920;48.158;12.254;2023-05-06T04:36:37;4.50;;;3.13;;
5787;SDS011;2920;48.158;12.254;2023-05-06T04:39:03;3.78;;;2.78;;
5787;SDS011;2920;48.158;12.254;2023-05-06T04:41:32;3.78;;;2.55;;
5787;SDS011;2920;48.158;12.254;2023-05-06T04:43:58;3.58;;;2.30;;
5787;SDS011;2920;48.158;12.254;2023-05-06T04:46:23;2.88;;;2.25;;
5787;SDS011;2920;48.158;12.254;2023-05-06T04:48:48;3.92;;;2.80;;
5787;SDS011;2920;48.158;12.254;2023-05-06T04:51:13;3.47;;;2.58;;
5787;SDS011;2920;48.158;12.254;2023-05-06T04:53:39;3.17;;;2.50;;
5787;SDS011;2920;48.158;12.254;2023-05-06T04:56:05;2.38;;;1.92;;
5787;SDS011;2920;48.158;12.254;2023-05-06T04:58:30;2.78;;;2.13;;
5787;SDS011;2920;48.158;12.254;2023-05-06T05:00:57;3.67;;;2.28;;
5787;SDS011;2920;48.158;12.254;2023-05-06T05:03:25;3.05;;;2.50;;
5787;SDS011;2920;48.158;12.254;2023-05-06T05:05:50;3.97;;;2.78;;
5787;SDS011;2920;48.158;12.254;2023-05-06T05:08:16;4.45;;;3.03;;
5787;SDS011;2920;48.158;12.254;2023-05-06T05:10:41;3.47;;;2.10;;
5787;SDS011;2920;48.158;12.254;2023-05-06T05:13:09;4.13;;;3.40;;
5787;SDS011;2920;48.158;12.254;2023-05-06T05:15:36;4.00;;;2.70;;
5787;SDS011;2920;48.158;12.254;2023-05-06T05:18:01;3.15;;;2.67;;
5787;SDS011;2920;48.158;12.254;2023-05-06T05:20:27;4.25;;;3.13;;
5787;SDS011;2920;48.158;12.254;2023-05-06T05:22:52;5.22;;;3.90;;
5787;SDS011;2920;48.158;12.254;2023-05-06T05:25:17;4.95;;;3.95;;
5787;SDS011;2920;48.158;12.254;2023-05-06T05:27:43;7.20;;;4.15;;
5787;SDS011;2920;48.158;12.254;2023-05-06T05:30:08;4.88;;;3.60;;
5787;SDS011;2920;48.158;12.254;2023-05-06T05:32:34;6.45;;;4.05;;
5787;SDS011;2920;48.158;12.254;2023-05-06T05:34:59;7.68;;;4.28;;
5787;SDS011;2920;48.158;12.254;2023-05-06T05:37:24;4.68;;;3.85;;
5787;SDS011;2920;48.158;12.254;2023-05-06T05:39:50;4.80;;;3.60;;
5787;SDS011;2920;48.158;12.254;2023-05-06T05:42:15;4.88;;;3.75;;
5787;SDS011;2920;48.158;12.254;2023-05-06T05:44:41;5.90;;;3.85;;
5787;SDS011;2920;48.158;12.254;2023-05-06T05:47:06;5.15;;;3.33;;
5787;SDS011;2920;48.158;12.254;2023-05-06T05:49:31;4.97;;;3.50;;
5787;SDS011;2920;48.158;12.254;2023-05-06T05:51:57;4.13;;;3.13;;
5787;SDS011;2920;48.158;12.254;2023-05-06T05:54:22;3.88;;;3.20;;
5787;SDS011;2920;48.158;12.254;2023-05-06T05:56:47;4.72;;;3.10;;
5787;SDS011;2920;48.158;12.254;2023-05-06T05:59:14;6.13;;;4.05;;
5787;SDS011;2920;48.158;12.254;2023-05-06T06:01:39;4.47;;;3.30;;
5787;SDS011;2920;48.158;12.254;2023-05-06T06:04:05;5.05;;;3.13;;
5787;SDS011;2920;48.158;12.254;2023-05-06T06:06:30;4.60;;;3.13;;
5787;SDS011;2920;48.158;12.254;2023-05-06T06:08:55;4.80;;;3.10;;
5787;SDS011;2920;48.158;12.254;2023-05-06T06:11:21;6.25;;;3.55;;
5787;SDS011;2920;48.158;12.254;2023-05-06T06:13:46;7.40;;;3.25;;
5787;SDS011;2920;48.158;12.254;2023-05-06T06:16:11;6.95;;;3.47;;
5787;SDS011;2920;48.158;12.254;2023-05-06T06:18:37;3.83;;;3.17;;
5787;SDS011;2920;48.158;12.254;2023-05-06T06:21:02;6.28;;;4.07;;
5787;SDS011;2920;48.158;12.254;2023-05-06T06:23:27;4.88;;;3.38;;
5787;SDS011;2920;48.158;12.254;2023-05-06T06:25:53;4.03;;;3.20;;
5787;SDS011;2920;48.158;12.254;2023-05-06T06:28:18;5.97;;;3.35;;
5787;SDS011;2920;48.158;12.254;2023-05-06T06:30:43;5.07;;;3.38;;
5787;SDS011;2920;48.158;12.254;2023-05-06T06:33:08;5.90;;;3.13;;
5787;SDS011;2920;48.158;12.254;2023-05-06T06:35:34;7.60;;;4.03;;
5787;SDS011;2920;48.158;12.254;2023-05-06T06:37:59;4.82;;;4.30;;
5787;SDS011;2920;48.158;12.254;2023-05-06T06:40:24;5.45;;;3.38;;
5787;SDS011;2920;48.158;12.254;2023-05-06T06:42:50;8.55;;;4.15;;
5787;SDS011;2920;48.158;12.254;2023-05-06T06:45:15;7.07;;;4.55;;
5787;SDS011;2920;48.158;12.254;2023-05-06T06:47:40;5.95;;;4.18;;
5787;SDS011;2920;48.158;12.254;2023-05-06T06:50:06;8.00;;;4.25;;
5787;SDS011;2920;48.158;12.254;2023-05-06T06:52:32;7.10;;;3.80;;
5787;SDS011;2920;48.158;12.254;2023-05-06T06:54:59;5.05;;;3.65;;
5787;SDS011;2920;48.158;12.254;2023-05-06T06:57:24;6.05;;;4.43;;
5787;SDS011;2920;48.158;12.254;2023-05-06T06:59:50;6.55;;;4.53;;
5787;SDS011;2920;48.158;12.254;2023-05-06T07:02:17;5.07;;;4.25;;
5787;SDS011;2920;48.158;12.254;2023-05-06T07:04:42;4.90;;;3.90;;
5787;SDS011;2920;48.158;12.254;2023-05-06T07:07:08;7.18;;;4.90;;
5787;SDS011;2920;48.158;12.254;2023-05-06T07:09:33;6.30;;;4.63;;
5787;SDS011;2920;48.158;12.254;2023-05-06T07:11:58;9.43;;;4.53;;
5787;SDS011;2920;48.158;12.254;2023-05-06T07:14:25;10.77;;;5.35;;
5787;SDS011;2920;48.158;12.254;2023-05-06T07:16:51;9.77;;;5.60;;
5787;SDS011;2920;48.158;12.254;2023-05-06T07:19:16;7.93;;;5.30;;
5787;SDS011;2920;48.158;12.254;2023-05-06T07:21:41;8.30;;;5.28;;
5787;SDS011;2920;48.158;12.254;2023-05-06T07:24:07;6.45;;;4.53;;
5787;SDS011;2920;48.158;12.254;2023-05-06T07:26:36;6.47;;;5.03;;
5787;SDS011;2920;48.158;12.254;2023-05-06T07:29:01;6.53;;;4.72;;
5787;SDS011;2920;48.158;12.254;2023-05-06T07:31:28;5.47;;;4.13;;
5787;SDS011;2920;48.158;12.254;2023-05-06T07:33:53;8.57;;;4.70;;
5787;SDS011;2920;48.158;12.254;2023-05-06T07:36:19;9.63;;;5.63;;
5787;SDS011;2920;48.158;12.254;2023-05-06T07:38:44;7.57;;;5.47;;
5787;SDS011;2920;48.158;12.254;2023-05-06T07:41:09;9.95;;;6.00;;
5787;SDS011;2920;48.158;12.254;2023-05-06T07:43:35;12.10;;;6.53;;
5787;SDS011;2920;48.158;12.254;2023-05-06T07:46:00;8.77;;;5.60;;
5787;SDS011;2920;48.158;12.254;2023-05-06T07:48:28;6.78;;;5.20;;
5787;SDS011;2920;48.158;12.254;2023-05-06T07:50:53;9.07;;;5.57;;
5787;SDS011;2920;48.158;12.254;2023-05-06T07:53:19;7.70;;;6.07;;
5787;SDS011;2920;48.158;12.254;2023-05-06T07:55:44;6.63;;;5.00;;
5787;SDS011;2920;48.158;12.254;2023-05-06T07:58:10;8.98;;;5.93;;
5787;SDS011;2920;48.158;12.254;2023-05-06T08:00:35;7.90;;;5.13;;
5787;SDS011;2920;48.158;12.254;2023-05-06T08:03:00;8.13;;;4.90;;
5787;SDS011;2920;48.158;12.254;2023-05-06T08:05:26;7.82;;;5.18;;
5787;SDS011;2920;48.158;12.254;2023-05-06T08:07:51;8.48;;;5.07;;
5787;SDS011;2920;48.158;12.254;2023-05-06T08:10:17;6.25;;;4.00;;
5787;SDS011;2920;48.158;12.254;2023-05-06T08:12:43;5.85;;;4.70;;
5787;SDS011;2920;48.158;12.254;2023-05-06T08:15:09;7.47;;;4.35;;
5787;SDS011;2920;48.158;12.254;2023-05-06T08:17:35;6.50;;;4.50;;
5787;SDS011;2920;48.158;12.254;2023-05-06T08:20:00;8.15;;;4.80;;
5787;SDS011;2920;48.158;12.254;2023-05-06T08:22:25;7.40;;;4.35;;
5787;SDS011;2920;48.158;12.254;2023-05-06T08:24:51;5.85;;;4.10;;
5787;SDS011;2920;48.158;12.254;2023-05-06T08:27:16;8.00;;;4.28;;
5787;SDS011;2920;48.158;12.254;2023-05-06T08:29:41;5.45;;;3.78;;
5787;SDS011;2920;48.158;12.254;2023-05-06T08:32:06;7.70;;;4.05;;
5787;SDS011;2920;48.158;12.254;2023-05-06T08:34:32;5.65;;;4.13;;
5787;SDS011;2920;48.158;12.254;2023-05-06T08:36:58;7.72;;;5.05;;
5787;SDS011;2920;48.158;12.254;2023-05-06T08:39:24;5.30;;;4.68;;
5787;SDS011;2920;48.158;12.254;2023-05-06T08:41:51;5.32;;;4.43;;
5787;SDS011;2920;48.158;12.254;2023-05-06T08:44:18;6.35;;;4.38;;
5787;SDS011;2920;48.158;12.254;2023-05-06T08:46:45;7.95;;;4.97;;
5787;SDS011;2920;48.158;12.254;2023-05-06T08:49:10;12.68;;;4.72;;
5787;SDS011;2920;48.158;12.254;2023-05-06T08:51:35;8.27;;;4.20;;
5787;SDS011;2920;48.158;12.254;2023-05-06T08:54:01;6.43;;;4.45;;
5787;SDS011;2920;48.158;12.254;2023-05-06T08:56:28;9.23;;;4.32;;
5787;SDS011;2920;48.158;12.254;2023-05-06T08:58:55;7.00;;;4.75;;
5787;SDS011;2920;48.158;12.254;2023-05-06T09:01:20;7.53;;;4.50;;
5787;SDS011;2920;48.158;12.254;2023-05-06T09:03:46;5.43;;;4.07;;
5787;SDS011;2920;48.158;12.254;2023-05-06T09:06:12;10.93;;;4.78;;
5787;SDS011;2920;48.158;12.254;2023-05-06T09:08:37;5.78;;;4.13;;
5787;SDS011;2920;48.158;12.254;2023-05-06T09:11:15;6.72;;;3.97;;
5787;SDS011;2920;48.158;12.254;2023-05-06T09:13:43;7.70;;;4.03;;
5787;SDS011;2920;48.158;12.254;2023-05-06T09:16:08;7.05;;;4.57;;
5787;SDS011;2920;48.158;12.254;2023-05-06T09:18:35;5.15;;;4.22;;
5787;SDS011;2920;48.158;12.254;2023-05-06T09:21:02;8.60;;;4.80;;
5787;SDS011;2920;48.158;12.254;2023-05-06T09:23:28;6.90;;;4.57;;
5787;SDS011;2920;48.158;12.254;2023-05-06T09:25:53;6.15;;;4.32;;
5787;SDS011;2920;48.158;12.254;2023-05-06T09:28:20;4.72;;;3.53;;
5787;SDS011;2920;48.158;12.254;2023-05-06T09:30:46;4.80;;;3.90;;
5787;SDS011;2920;48.158;12.254;2023-05-06T09:33:11;4.85;;;4.22;;
5787;SDS011;2920;48.158;12.254;2023-05-06T09:35:38;7.80;;;4.85;;
5787;SDS011;2920;48.158;12.254;2023-05-06T09:38:04;5.32;;;4.35;;
5787;SDS011;2920;48.158;12.254;2023-05-06T09:40:30;5.60;;;4.28;;
5787;SDS011;2920;48.158;12.254;2023-05-06T09:42:56;5.93;;;4.65;;
5787;SDS011;2920;48.158;12.254;2023-05-06T09:45:22;6.45;;;4.45;;
5787;SDS011;2920;48.158;12.254;2023-05-06T09:47:48;6.03;;;4.20;;
5787;SDS011;2920;48.158;12.254;2023-05-06T09:50:14;6.90;;;4.45;;
5787;SDS011;2920;48.158;12.254;2023-05-06T09:52:43;5.10;;;3.78;;
5787;SDS011;2920;48.158;12.254;2023-05-06T09:55:08;5.68;;;4.25;;
5787;SDS011;2920;48.158;12.254;2023-05-06T09:57:35;4.80;;;3.88;;
5787;SDS011;2920;48.158;12.254;2023-05-06T10:00:00;6.35;;;4.25;;
5787;SDS011;2920;48.158;12.254;2023-05-06T10:02:26;6.13;;;3.20;;
5787;SDS011;2920;48.158;12.254;2023-05-06T10:04:52;4.82;;;4.13;;
5787;SDS011;2920;48.158;12.254;2023-05-06T10:07:18;4.00;;;3.00;;
5787;SDS011;2920;48.158;12.254;2023-05-06T10:09:46;8.82;;;3.70;;
5787;SDS011;2920;48.158;12.254;2023-05-06T10:12:13;5.03;;;3.38;;
5787;SDS011;2920;48.158;12.254;2023-05-06T10:14:38;4.90;;;3.05;;
5787;SDS011;2920;48.158;12.254;2023-05-06T10:17:07;4.90;;;3.40;;
5787;SDS011;2920;48.158;12.254;2023-05-06T10:19:33;5.60;;;3.78;;
5787;SDS011;2920;48.158;12.254;2023-05-06T10:22:01;4.38;;;3.28;;
5787;SDS011;2920;48.158;12.254;2023-05-06T10:24:35;3.92;;;3.33;;
5787;SDS011;2920;48.158;12.254;2023-05-06T10:27:10;4.25;;;3.00;;
5787;SDS011;2920;48.158;12.254;2023-05-06T10:29:36;5.85;;;3.30;;
5787;SDS011;2920;48.158;12.254;2023-05-06T10:32:01;7.57;;;3.92;;
5787;SDS011;2920;48.158;12.254;2023-05-06T10:34:27;5.00;;;3.40;;
5787;SDS011;2920;48.158;12.254;2023-05-06T10:36:56;7.07;;;4.47;;
5787;SDS011;2920;48.158;12.254;2023-05-06T10:39:21;4.65;;;3.65;;
5787;SDS011;2920;48.158;12.254;2023-05-06T10:41:47;7.35;;;4.75;;
5787;SDS011;2920;48.158;12.254;2023-05-06T10:44:13;6.07;;;3.70;;
5787;SDS011;2920;48.158;12.254;2023-05-06T10:49:33;4.75;;;3.25;;
5787;SDS011;2920;48.158;12.254;2023-05-06T10:52:09;7.40;;;2.97;;
5787;SDS011;2920;48.158;12.254;2023-05-06T10:54:47;6.15;;;3.17;;
5787;SDS011;2920;48.158;12.254;2023-05-06T10:57:14;4.85;;;3.17;;
5787;SDS011;2920;48.158;12.254;2023-05-06T10:59:43;4.20;;;2.83;;
5787;SDS011;2920;48.158;12.254;2023-05-06T11:02:10;3.70;;;3.03;;
5787;SDS011;2920;48.158;12.254;2023-05-06T11:04:36;4.13;;;2.85;;
5787;SDS011;2920;48.158;12.254;2023-05-06T11:07:15;2.45;;;2.20;;
5787;SDS011;2920;48.158;12.254;2023-05-06T11:10:02;3.38;;;2.13;;
5787;SDS011;2920;48.158;12.254;2023-05-06T11:12:50;4.32;;;2.45;;
5787;SDS011;2920;48.158;12.254;2023-05-06T11:15:36;3.15;;;2.70;;
5787;SDS011;2920;48.158;12.254;2023-05-06T11:26:13;2.65;;;2.28;;
5787;SDS011;2920;48.158;12.254;2023-05-06T11:28:39;2.35;;;2.10;;
5787;SDS011;2920;48.158;12.254;2023-05-06T11:31:07;4.05;;;2.50;;
5787;SDS011;2920;48.158;12.254;2023-05-06T11:33:36;2.97;;;2.17;;
5787;SDS011;2920;48.158;12.254;2023-05-06T11:36:02;2.78;;;2.28;;
5787;SDS011;2920;48.158;12.254;2023-05-06T11:38:41;2.58;;;2.10;;
5787;SDS011;2920;48.158;12.254;2023-05-06T11:41:07;2.95;;;2.38;;
5787;SDS011;2920;48.158;12.254;2023-05-06T11:43:33;3.22;;;2.00;;
5787;SDS011;2920;48.158;12.254;2023-05-06T11:45:58;5.13;;;2.20;;
5787;SDS011;2920;48.158;12.254;2023-05-06T11:48:23;3.22;;;2.38;;
5787;SDS011;2920;48.158;12.254;2023-05-06T11:50:49;3.42;;;2.40;;
5787;SDS011;2920;48.158;12.254;2023-05-06T11:53:21;4.95;;;2.28;;
5787;SDS011;2920;48.158;12.254;2023-05-06T11:55:47;3.63;;;2.50;;
5787;SDS011;2920;48.158;12.254;2023-05-06T11:58:26;4.03;;;2.20;;
5787;SDS011;2920;48.158;12.254;2023-05-06T12:00:53;4.38;;;1.90;;
5787;SDS011;2920;48.158;12.254;2023-05-06T12:03:22;3.17;;;2.25;;
5787;SDS011;2920;48.158;12.254;2023-05-06T12:05:49;2.22;;;2.03;;
5787;SDS011;2920;48.158;12.254;2023-05-06T12:08:20;4.18;;;2.17;;
5787;SDS011;2920;48.158;12.254;2023-05-06T12:10:48;4.18;;;1.67;;
5787;SDS011;2920;48.158;12.254;2023-05-06T12:13:14;3.60;;;2.08;;
5787;SDS011;2920;48.158;12.254;2023-05-06T12:15:40;2.72;;;1.90;;
5787;SDS011;2920;48.158;12.254;2023-05-06T12:18:06;2.30;;;1.67;;
5787;SDS011;2920;48.158;12.254;2023-05-06T12:20:33;3.78;;;2.13;;
5787;SDS011;2920;48.158;12.254;2023-05-06T12:23:08;1.80;;;1.65;;
5787;SDS011;2920;48.158;12.254;2023-05-06T12:25:35;1.63;;;1.50;;
5787;SDS011;2920;48.158;12.254;2023-05-06T12:28:00;2.08;;;1.35;;
5787;SDS011;2920;48.158;12.254;2023-05-06T12:30:32;2.75;;;1.85;;
5787;SDS011;2920;48.158;12.254;2023-05-06T12:32:58;2.67;;;1.77;;
5787;SDS011;2920;48.158;12.254;2023-05-06T12:35:25;6.28;;;2.13;;
5787;SDS011;2920;48.158;12.254;2023-05-06T12:37:51;2.33;;;1.80;;
5787;SDS011;2920;48.158;12.254;2023-05-06T12:40:17;2.00;;;1.63;;
5787;SDS011;2920;48.158;12.254;2023-05-06T12:42:42;3.08;;;1.90;;
5787;SDS011;2920;48.158;12.254;2023-05-06T12:45:13;2.80;;;1.85;;
5787;SDS011;2920;48.158;12.254;2023-05-06T12:47:39;2.08;;;1.60;;
5787;SDS011;2920;48.158;12.254;2023-05-06T12:50:29;2.80;;;2.42;;
5787;SDS011;2920;48.158;12.254;2023-05-06T12:52:55;2.13;;;1.67;;
5787;SDS011;2920;48.158;12.254;2023-05-06T12:55:20;2.67;;;2.00;;
5787;SDS011;2920;48.158;12.254;2023-05-06T12:57:47;2.20;;;1.92;;
5787;SDS011;2920;48.158;12.254;2023-05-06T13:00:13;1.67;;;1.38;;
5787;SDS011;2920;48.158;12.254;2023-05-06T13:02:39;3.50;;;2.10;;
5787;SDS011;2920;48.158;12.254;2023-05-06T13:05:05;4.10;;;1.75;;
5787;SDS011;2920;48.158;12.254;2023-05-06T13:07:30;4.32;;;1.92;;
5787;SDS011;2920;48.158;12.254;2023-05-06T13:09:56;4.03;;;2.10;;
5787;SDS011;2920;48.158;12.254;2023-05-06T13:12:21;2.97;;;1.70;;
5787;SDS011;2920;48.158;12.254;2023-05-06T13:14:46;4.88;;;2.10;;
5787;SDS011;2920;48.158;12.254;2023-05-06T13:17:12;1.95;;;1.75;;
5787;SDS011;2920;48.158;12.254;2023-05-06T13:19:38;2.35;;;1.67;;
5787;SDS011;2920;48.158;12.254;2023-05-06T13:22:03;2.35;;;2.08;;
5787;SDS011;2920;48.158;12.254;2023-05-06T13:24:29;2.70;;;2.20;;
5787;SDS011;2920;48.158;12.254;2023-05-06T13:26:54;3.58;;;1.70;;
5787;SDS011;2920;48.158;12.254;2023-05-06T13:29:20;2.70;;;1.85;;
5787;SDS011;2920;48.158;12.254;2023-05-06T13:31:47;3.38;;;1.83;;
5787;SDS011;2920;48.158;12.254;2023-05-06T13:34:12;2.85;;;2.25;;
5787;SDS011;2920;48.158;12.254;2023-05-06T13:36:37;2.42;;;1.80;;
5787;SDS011;2920;48.158;12.254;2023-05-06T13:39:03;1.80;;;1.50;;
5787;SDS011;2920;48.158;12.254;2023-05-06T13:41:28;1.85;;;1.55;;
5787;SDS011;2920;48.158;12.254;2023-05-06T13:43:53;2.30;;;2.10;;
5787;SDS011;2920;48.158;12.254;2023-05-06T13:46:19;3.35;;;2.70;;
5787;SDS011;2920;48.158;12.254;2023-05-06T13:48:44;3.75;;;2.55;;
5787;SDS011;2920;48.158;12.254;2023-05-06T13:51:09;3.25;;;2.42;;
5787;SDS011;2920;48.158;12.254;2023-05-06T13:53:35;4.32;;;2.88;;
5787;SDS011;2920;48.158;12.254;2023-05-06T13:56:00;2.58;;;2.38;;
5787;SDS011;2920;48.158;12.254;2023-05-06T13:58:25;4.60;;;3.05;;
5787;SDS011;2920;48.158;12.254;2023-05-06T14:00:51;3.85;;;2.47;;
5787;SDS011;2920;48.158;12.254;2023-05-06T14:03:16;2.70;;;1.70;;
5787;SDS011;2920;48.158;12.254;2023-05-06T14:05:41;2.13;;;1.92;;
5787;SDS011;2920;48.158;12.254;2023-05-06T14:08:07;3.58;;;2.05;;
5787;SDS011;2920;48.158;12.254;2023-05-06T14:10:32;3.95;;;2.92;;
5787;SDS011;2920;48.158;12.254;2023-05-06T14:12:58;3.95;;;2.75;;
5787;SDS011;2920;48.158;12.254;2023-05-06T14:15:23;2.58;;;1.70;;
5787;SDS011;2920;48.158;12.254;2023-05-06T14:17:48;3.05;;;2.00;;
5787;SDS011;2920;48.158;12.254;2023-05-06T14:20:14;2.80;;;1.98;;
5787;SDS011;2920;48.158;12.254;2023-05-06T14:22:39;3.05;;;1.90;;
5787;SDS011;2920;48.158;12.254;2023-05-06T14:25:05;2.03;;;1.77;;
5787;SDS011;2920;48.158;12.254;2023-05-06T14:27:31;2.83;;;1.50;;
5787;SDS011;2920;48.158;12.254;2023-05-06T14:29:56;2.30;;;1.58;;
5787;SDS011;2920;48.158;12.254;2023-05-06T14:32:22;2.42;;;1.90;;
5787;SDS011;2920;48.158;12.254;2023-05-06T14:34:47;2.67;;;2.05;;
5787;SDS011;2920;48.158;12.254;2023-05-06T14:37:12;3.72;;;2.15;;
5787;SDS011;2920;48.158;12.254;2023-05-06T14:39:38;3.47;;;1.60;;
5787;SDS011;2920;48.158;12.254;2023-05-06T14:42:03;3.38;;;1.95;;
5787;SDS011;2920;48.158;12.254;2023-05-06T14:44:28;3.97;;;1.60;;
5787;SDS011;2920;48.158;12.254;2023-05-06T14:46:54;2.88;;;1.80;;
5787;SDS011;2920;48.158;12.254;2023-05-06T14:49:19;5.15;;;3.03;;
5787;SDS011;2920;48.158;12.254;2023-05-06T14:51:45;2.10;;;1.70;;
5787;SDS011;2920;48.158;12.254;2023-05-06T14:54:13;1.60;;;1.48;;
5787;SDS011;2920;48.158;12.254;2023-05-06T14:56:40;1.92;;;1.50;;
5787;SDS011;2920;48.158;12.254;2023-05-06T14:59:05;3.53;;;1.45;;
5787;SDS011;2920;48.158;12.254;2023-05-06T15:01:31;2.38;;;1.75;;
5787;SDS011;2920;48.158;12.254;2023-05-06T15:03:57;5.38;;;2.30;;
5787;SDS011;2920;48.158;12.254;2023-05-06T15:06:22;4.00;;;2.30;;
5787;SDS011;2920;48.158;12.254;2023-05-06T15:08:48;2.17;;;1.60;;
5787;SDS011;2920;48.158;12.254;2023-05-06T15:11:13;3.50;;;2.22;;
5787;SDS011;2920;48.158;12.254;2023-05-06T15:13:38;2.13;;;1.92;;
5787;SDS011;2920;48.158;12.254;2023-05-06T15:16:04;3.83;;;2.33;;
5787;SDS011;2920;48.158;12.254;2023-05-06T15:18:29;3.38;;;2.28;;
5787;SDS011;2920;48.158;12.254;2023-05-06T15:20:55;2.53;;;1.98;;
5787;SDS011;2920;48.158;12.254;2023-05-06T15:23:22;2.00;;;1.40;;
5787;SDS011;2920;48.158;12.254;2023-05-06T15:25:48;2.50;;;1.35;;